sensor_id;sensor_type;location;lat;lon;timestamp;pressure;altitude;pressure_sealevel;temperature;humidity
51313;BME280;37397;53.226;10.400;2023-07-09T00:02:01;101613.38;;;25.34;41.95
51313;BME280;37397;53.226;10.400;2023-07-09T00:04:28;101615.84;;;25.30;41.96
51313;BME280;37397;53.226;10.400;2023-07-09T00:06:57;101619.88;;;25.27;42.11
51313;BME280;37397;53.226;10.400;2023-07-09T00:09:26;101620.03;;;25.21;42.08
51313;BME280;37397;53.226;10.400;2023-07-09T00:11:53;101620.34;;;25.18;41.92
51313;BME280;37397;53.226;10.400;2023-07-09T00:14:20;101629.69;;;25.16;41.98
51313;BME280;37397;53.226;10.400;2023-07-09T00:16:46;101625.53;;;25.11;41.99
51313;BME280;37397;53.226;10.400;2023-07-09T00:19:18;101626.44;;;25.06;42.17
51313;BME280;37397;53.226;10.400;2023-07-09T00:21:48;101613.53;;;25.02;42.27
51313;BME280;37397;53.226;10.400;2023-07-09T00:24:19;101615.47;;;24.99;42.14
51313;BME280;37397;53.226;10.400;2023-07-09T00:26:46;101612.09;;;24.95;42.39
51313;BME280;37397;53.226;10.400;2023-07-09T00:29:16;101620.44;;;24.91;41.87
51313;BME280;37397;53.226;10.400;2023-07-09T00:31:43;101614.16;;;24.87;42.02
51313;BME280;37397;53.226;10.400;2023-07-09T00:34:12;101619.00;;;24.84;42.33
51313;BME280;37397;53.226;10.400;2023-07-09T00:36:41;101628.66;;;24.79;42.44
51313;BME280;37397;53.226;10.400;2023-07-09T00:39:18;101629.00;;;24.75;42.36
51313;BME280;37397;53.226;10.400;2023-07-09T00:41:47;101631.50;;;24.71;42.33
51313;BME280;37397;53.226;10.400;2023-07-09T00:49:27;101630.16;;;24.59;42.17
51313;BME280;37397;53.226;10.400;2023-07-09T00:51:56;101632.84;;;24.57;42.27
51313;BME280;37397;53.226;10.400;2023-07-09T00:54:39;101623.41;;;24.51;42.75
51313;BME280;37397;53.226;10.400;2023-07-09T00:57:11;101624.88;;;24.44;42.78
51313;BME280;37397;53.226;10.400;2023-07-09T00:59:39;101623.84;;;24.42;42.79
51313;BME280;37397;53.226;10.400;2023-07-09T01:02:07;101631.81;;;24.41;42.64
51313;BME280;37397;53.226;10.400;2023-07-09T01:04:34;101621.63;;;24.34;42.82
51313;BME280;37397;53.226;10.400;2023-07-09T01:07:02;101612.41;;;24.30;42.97
51313;BME280;37397;53.226;10.400;2023-07-09T01:09:30;101621.50;;;24.27;42.93
51313;BME280;37397;53.226;10.400;2023-07-09T01:11:57;101625.75;;;24.26;42.85
51313;BME280;37397;53.226;10.400;2023-07-09T01:14:27;101623.16;;;24.22;42.90
51313;BME280;37397;53.226;10.400;2023-07-09T01:17:03;101616.66;;;24.16;42.99
51313;BME280;37397;53.226;10.400;2023-07-09T01:19:41;101609.59;;;24.11;42.84
51313;BME280;37397;53.226;10.400;2023-07-09T01:22:13;101611.50;;;24.09;43.11
51313;BME280;37397;53.226;10.400;2023-07-09T01:25:09;101609.47;;;24.03;43.14
51313;BME280;37397;53.226;10.400;2023-07-09T01:27:41;101612.16;;;24.01;43.38
51313;BME280;37397;53.226;10.400;2023-07-09T01:30:11;101600.06;;;23.97;43.13
51313;BME280;37397;53.226;10.400;2023-07-09T01:32:38;101606.19;;;23.94;43.10
51313;BME280;37397;53.226;10.400;2023-07-09T01:35:06;101606.53;;;23.90;43.42
51313;BME280;37397;53.226;10.400;2023-07-09T01:37:36;101609.22;;;23.88;43.34
51313;BME280;37397;53.226;10.400;2023-07-09T01:40:06;101604.28;;;23.83;43.54
51313;BME280;37397;53.226;10.400;2023-07-09T01:42:56;101600.66;;;23.77;43.57
51313;BME280;37397;53.226;10.400;2023-07-09T01:45:26;101600.44;;;23.75;43.64
51313;BME280;37397;53.226;10.400;2023-07-09T01:47:54;101601.56;;;23.72;43.47
51313;BME280;37397;53.226;10.400;2023-07-09T01:50:22;101601.09;;;23.67;43.55
51313;BME280;37397;53.226;10.400;2023-07-09T01:52:50;101594.78;;;23.63;43.75
51313;BME280;37397;53.226;10.400;2023-07-09T01:55:17;101602.53;;;23.61;43.58
51313;BME280;37397;53.226;10.400;2023-07-09T01:57:44;101604.41;;;23.58;43.84
51313;BME280;37397;53.226;10.400;2023-07-09T02:00:14;101601.06;;;23.54;43.87
51313;BME280;37397;53.226;10.400;2023-07-09T02:02:43;101596.34;;;23.51;43.79
51313;BME280;37397;53.226;10.400;2023-07-09T02:05:13;101595.84;;;23.47;43.86
51313;BME280;37397;53.226;10.400;2023-07-09T02:07:40;101593.28;;;23.43;43.85
51313;BME280;37397;53.226;10.400;2023-07-09T02:10:07;101601.00;;;23.41;44.07
51313;BME280;37397;53.226;10.400;2023-07-09T02:12:34;101606.38;;;23.37;44.02
51313;BME280;37397;53.226;10.400;2023-07-09T02:15:00;101602.44;;;23.34;43.87
51313;BME280;37397;53.226;10.400;2023-07-09T02:17:27;101605.66;;;23.30;44.11
51313;BME280;37397;53.226;10.400;2023-07-09T02:19:54;101605.44;;;23.28;44.24
51313;BME280;37397;53.226;10.400;2023-07-09T02:22:20;101602.59;;;23.23;44.07
51313;BME280;37397;53.226;10.400;2023-07-09T02:24:47;101597.34;;;23.21;44.27
51313;BME280;37397;53.226;10.400;2023-07-09T02:27:16;101586.56;;;23.16;44.09
51313;BME280;37397;53.226;10.400;2023-07-09T02:29:43;101586.13;;;23.12;44.31
51313;BME280;37397;53.226;10.400;2023-07-09T02:32:16;101588.00;;;23.09;44.29
51313;BME280;37397;53.226;10.400;2023-07-09T02:34:45;101584.03;;;23.07;44.48
51313;BME280;37397;53.226;10.400;2023-07-09T02:37:16;101586.47;;;23.03;44.24
51313;BME280;37397;53.226;10.400;2023-07-09T02:39:46;101594.19;;;23.00;44.57
51313;BME280;37397;53.226;10.400;2023-07-09T02:42:14;101599.00;;;22.98;44.48
51313;BME280;37397;53.226;10.400;2023-07-09T02:44:41;101598.50;;;22.93;44.61
51313;BME280;37397;53.226;10.400;2023-07-09T02:47:09;101599.38;;;22.88;44.34
51313;BME280;37397;53.226;10.400;2023-07-09T02:49:36;101599.94;;;22.87;44.58
51313;BME280;37397;53.226;10.400;2023-07-09T02:52:03;101595.78;;;22.82;44.70
51313;BME280;37397;53.226;10.400;2023-07-09T02:54:30;101599.78;;;22.79;44.83
51313;BME280;37397;53.226;10.400;2023-07-09T02:56:57;101602.47;;;22.77;44.79
51313;BME280;37397;53.226;10.400;2023-07-09T02:59:23;101594.59;;;22.72;44.79
51313;BME280;37397;53.226;10.400;2023-07-09T03:01:52;101603.06;;;22.70;44.92
51313;BME280;37397;53.226;10.400;2023-07-09T03:04:19;101600.72;;;22.68;44.71
51313;BME280;37397;53.226;10.400;2023-07-09T03:06:46;101597.88;;;22.63;44.92
51313;BME280;37397;53.226;10.400;2023-07-09T03:09:13;101607.94;;;22.62;44.99
51313;BME280;37397;53.226;10.400;2023-07-09T03:11:40;101601.66;;;22.57;44.94
51313;BME280;37397;53.226;10.400;2023-07-09T03:14:07;101601.94;;;22.54;45.09
51313;BME280;37397;53.226;10.400;2023-07-09T03:16:34;101602.53;;;22.52;45.21
51313;BME280;37397;53.226;10.400;2023-07-09T03:19:02;101616.81;;;22.50;45.24
51313;BME280;37397;53.226;10.400;2023-07-09T03:21:31;101603.34;;;22.47;45.37
51313;BME280;37397;53.226;10.400;2023-07-09T03:23:59;101604.22;;;22.42;45.11
51313;BME280;37397;53.226;10.400;2023-07-09T03:26:26;101604.00;;;22.40;45.16
51313;BME280;37397;53.226;10.400;2023-07-09T03:28:53;101613.25;;;22.38;45.31
51313;BME280;37397;53.226;10.400;2023-07-09T03:31:20;101603.25;;;22.34;45.26
51313;BME280;37397;53.226;10.400;2023-07-09T03:33:48;101611.22;;;22.33;45.42
51313;BME280;37397;53.226;10.400;2023-07-09T03:36:15;101607.25;;;22.31;45.39
51313;BME280;37397;53.226;10.400;2023-07-09T03:38:42;101605.41;;;22.28;45.58
51313;BME280;37397;53.226;10.400;2023-07-09T03:41:09;101607.31;;;22.25;45.64
51313;BME280;37397;53.226;10.400;2023-07-09T03:43:35;101612.88;;;22.23;45.65
51313;BME280;37397;53.226;10.400;2023-07-09T03:46:02;101617.66;;;22.20;45.77
51313;BME280;37397;53.226;10.400;2023-07-09T03:48:29;101623.22;;;22.18;45.70
51313;BME280;37397;53.226;10.400;2023-07-09T03:50:56;101617.19;;;22.16;45.73
51313;BME280;37397;53.226;10.400;2023-07-09T03:53:22;101612.22;;;22.11;45.88
51313;BME280;37397;53.226;10.400;2023-07-09T03:55:54;101619.63;;;22.12;45.91
51313;BME280;37397;53.226;10.400;2023-07-09T03:58:23;101619.34;;;22.10;45.83
51313;BME280;37397;53.226;10.400;2023-07-09T04:00:49;101619.88;;;22.09;46.01
51313;BME280;37397;53.226;10.400;2023-07-09T04:03:16;101626.78;;;22.06;45.95
51313;BME280;37397;53.226;10.400;2023-07-09T04:05:43;101622.34;;;22.04;45.96
51313;BME280;37397;53.226;10.400;2023-07-09T04:08:09;101628.69;;;22.03;46.23
51313;BME280;37397;53.226;10.400;2023-07-09T04:10:36;101621.84;;;22.00;46.15
51313;BME280;37397;53.226;10.400;2023-07-09T04:13:02;101628.19;;;21.99;46.03
51313;BME280;37397;53.226;10.400;2023-07-09T04:15:29;101629.78;;;22.00;46.14
51313;BME280;37397;53.226;10.400;2023-07-09T04:17:56;101626.38;;;21.96;46.08
51313;BME280;37397;53.226;10.400;2023-07-09T04:20:22;101626.91;;;21.94;46.34
51313;BME280;37397;53.226;10.400;2023-07-09T04:22:49;101618.72;;;21.93;46.22
51313;BME280;37397;53.226;10.400;2023-07-09T04:25:16;101627.22;;;21.91;46.37
51313;BME280;37397;53.226;10.400;2023-07-09T04:27:43;101617.72;;;21.90;46.48
51313;BME280;37397;53.226;10.400;2023-07-09T04:30:14;101619.31;;;21.91;46.47
51313;BME280;37397;53.226;10.400;2023-07-09T04:32:45;101623.28;;;21.88;46.54
51313;BME280;37397;53.226;10.400;2023-07-09T04:35:14;101615.13;;;21.87;46.61
51313;BME280;37397;53.226;10.400;2023-07-09T04:37:41;101618.81;;;21.87;46.57
51313;BME280;37397;53.226;10.400;2023-07-09T04:40:09;101624.38;;;21.85;46.60
51313;BME280;37397;53.226;10.400;2023-07-09T04:42:39;101625.16;;;21.85;46.65
51313;BME280;37397;53.226;10.400;2023-07-09T04:45:08;101626.47;;;21.84;46.76
51313;BME280;37397;53.226;10.400;2023-07-09T04:47:35;101622.78;;;21.84;46.74
51313;BME280;37397;53.226;10.400;2023-07-09T04:50:03;101617.50;;;21.82;46.66
51313;BME280;37397;53.226;10.400;2023-07-09T04:52:30;101613.28;;;21.83;46.76
51313;BME280;37397;53.226;10.400;2023-07-09T04:54:57;101613.03;;;21.81;46.81
51313;BME280;37397;53.226;10.400;2023-07-09T04:57:25;101617.75;;;21.84;46.64
51313;BME280;37397;53.226;10.400;2023-07-09T04:59:51;101622.00;;;21.83;46.65
51313;BME280;37397;53.226;10.400;2023-07-09T05:02:18;101608.81;;;21.82;46.74
51313;BME280;37397;53.226;10.400;2023-07-09T05:04:44;101622.78;;;21.84;46.58
51313;BME280;37397;53.226;10.400;2023-07-09T05:07:11;101622.78;;;21.84;46.79
51313;BME280;37397;53.226;10.400;2023-07-09T05:09:37;101631.75;;;21.86;46.77
51313;BME280;37397;53.226;10.400;2023-07-09T05:12:04;101625.16;;;21.85;46.67
51313;BME280;37397;53.226;10.400;2023-07-09T05:14:31;101634.91;;;21.88;46.84
51313;BME280;37397;53.226;10.400;2023-07-09T05:16:57;101625.66;;;21.90;46.86
51313;BME280;37397;53.226;10.400;2023-07-09T05:19:24;101630.66;;;21.89;46.83
51313;BME280;37397;53.226;10.400;2023-07-09T05:21:50;101628.78;;;21.92;46.72
51313;BME280;37397;53.226;10.400;2023-07-09T05:24:17;101616.88;;;21.95;46.81
51313;BME280;37397;53.226;10.400;2023-07-09T05:26:43;101623.72;;;21.98;46.92
51313;BME280;37397;53.226;10.400;2023-07-09T05:29:10;101620.81;;;21.98;46.95
51313;BME280;37397;53.226;10.400;2023-07-09T05:31:36;101630.56;;;22.00;46.94
51313;BME280;37397;53.226;10.400;2023-07-09T05:34:03;101627.34;;;22.04;46.87
51313;BME280;37397;53.226;10.400;2023-07-09T05:36:30;101628.38;;;22.07;46.83
51313;BME280;37397;53.226;10.400;2023-07-09T05:38:57;101620.69;;;22.09;46.98
51313;BME280;37397;53.226;10.400;2023-07-09T05:41:23;101624.63;;;22.12;46.99
51313;BME280;37397;53.226;10.400;2023-07-09T05:43:51;101619.63;;;22.12;46.83
51313;BME280;37397;53.226;10.400;2023-07-09T05:46:18;101621.66;;;22.17;46.98
51313;BME280;37397;53.226;10.400;2023-07-09T05:48:45;101619.00;;;22.19;46.92
51313;BME280;37397;53.226;10.400;2023-07-09T05:51:12;101611.84;;;22.20;47.03
51313;BME280;37397;53.226;10.400;2023-07-09T05:53:38;101610.78;;;22.24;46.87
51313;BME280;37397;53.226;10.400;2023-07-09T05:56:06;101625.78;;;22.28;46.93
51313;BME280;37397;53.226;10.400;2023-07-09T05:58:33;101609.13;;;22.28;46.95
51313;BME280;37397;53.226;10.400;2023-07-09T06:00:59;101604.91;;;22.29;46.94
51313;BME280;37397;53.226;10.400;2023-07-09T06:03:26;101617.25;;;22.35;46.96
51313;BME280;37397;53.226;10.400;2023-07-09T06:05:54;101610.66;;;22.35;47.03
51313;BME280;37397;53.226;10.400;2023-07-09T06:08:21;101618.31;;;22.38;46.88
51313;BME280;37397;53.226;10.400;2023-07-09T06:10:58;101621.66;;;22.42;46.93
51313;BME280;37397;53.226;10.400;2023-07-09T06:13:27;101627.19;;;22.46;46.94
51313;BME280;37397;53.226;10.400;2023-07-09T06:15:54;101636.16;;;22.48;46.97
51313;BME280;37397;53.226;10.400;2023-07-09T06:18:22;101631.34;;;22.50;47.07
51313;BME280;37397;53.226;10.400;2023-07-09T06:20:54;101634.53;;;22.52;46.81
51313;BME280;37397;53.226;10.400;2023-07-09T06:23:21;101627.59;;;22.55;46.89
51313;BME280;37397;53.226;10.400;2023-07-09T06:25:48;101632.31;;;22.58;46.96
51313;BME280;37397;53.226;10.400;2023-07-09T06:28:15;101627.28;;;22.59;47.16
51313;BME280;37397;53.226;10.400;2023-07-09T06:30:43;101640.22;;;22.64;47.00
51313;BME280;37397;53.226;10.400;2023-07-09T06:33:10;101630.34;;;22.67;47.27
51313;BME280;37397;53.226;10.400;2023-07-09T06:35:38;101631.38;;;22.69;47.12
51313;BME280;37397;53.226;10.400;2023-07-09T06:38:06;101633.97;;;22.73;47.26
51313;BME280;37397;53.226;10.400;2023-07-09T06:40:32;101636.59;;;22.76;47.16
51313;BME280;37397;53.226;10.400;2023-07-09T06:42:59;101636.03;;;22.78;47.26
51313;BME280;37397;53.226;10.400;2023-07-09T06:45:31;101620.91;;;22.80;47.18
51313;BME280;37397;53.226;10.400;2023-07-09T06:48:00;101630.91;;;22.84;47.14
51313;BME280;37397;53.226;10.400;2023-07-09T06:50:27;101632.19;;;22.89;47.29
51313;BME280;37397;53.226;10.400;2023-07-09T06:52:53;101627.41;;;22.91;47.24
51313;BME280;37397;53.226;10.400;2023-07-09T06:55:20;101628.41;;;22.94;47.29
51313;BME280;37397;53.226;10.400;2023-07-09T06:57:47;101633.13;;;22.97;47.17
51313;BME280;37397;53.226;10.400;2023-07-09T07:00:13;101641.78;;;23.03;47.33
51313;BME280;37397;53.226;10.400;2023-07-09T07:02:40;101642.25;;;23.07;47.42
51313;BME280;37397;53.226;10.400;2023-07-09T07:05:07;101640.41;;;23.09;47.53
51313;BME280;37397;53.226;10.400;2023-07-09T07:07:33;101632.69;;;23.12;47.59
51313;BME280;37397;53.226;10.400;2023-07-09T07:10:00;101623.09;;;23.17;47.33
51313;BME280;37397;53.226;10.400;2023-07-09T07:12:28;101630.94;;;23.22;47.42
51313;BME280;37397;53.226;10.400;2023-07-09T07:14:55;101630.94;;;23.22;47.47
51313;BME280;37397;53.226;10.400;2023-07-09T07:17:22;101628.75;;;23.28;47.35
51313;BME280;37397;53.226;10.400;2023-07-09T07:19:49;101626.28;;;23.33;47.21
51313;BME280;37397;53.226;10.400;2023-07-09T07:22:16;101627.31;;;23.35;47.65
51313;BME280;37397;53.226;10.400;2023-07-09T07:24:42;101628.56;;;23.40;47.45
51313;BME280;37397;53.226;10.400;2023-07-09T07:27:09;101622.19;;;23.41;47.31
51313;BME280;37397;53.226;10.400;2023-07-09T07:29:36;101618.94;;;23.45;47.39
51313;BME280;37397;53.226;10.400;2023-07-09T07:32:02;101631.06;;;23.49;47.42
51313;BME280;37397;53.226;10.400;2023-07-09T07:34:30;101622.56;;;23.51;47.47
51313;BME280;37397;53.226;10.400;2023-07-09T07:36:56;101629.84;;;23.58;47.37
51313;BME280;37397;53.226;10.400;2023-07-09T07:39:23;101635.34;;;23.61;47.38
51313;BME280;37397;53.226;10.400;2023-07-09T07:41:49;101625.28;;;23.62;47.42
51313;BME280;37397;53.226;10.400;2023-07-09T07:44:17;101620.91;;;23.69;47.34
51313;BME280;37397;53.226;10.400;2023-07-09T07:46:44;101630.91;;;23.74;47.31
51313;BME280;37397;53.226;10.400;2023-07-09T07:49:11;101629.81;;;23.77;47.17
51313;BME280;37397;53.226;10.400;2023-07-09T07:51:38;101627.13;;;23.79;47.19
51313;BME280;37397;53.226;10.400;2023-07-09T07:54:05;101626.25;;;23.84;47.35
51313;BME280;37397;53.226;10.400;2023-07-09T07:56:32;101627.50;;;23.89;47.14
51313;BME280;37397;53.226;10.400;2023-07-09T07:58:59;101622.69;;;23.91;47.39
51313;BME280;37397;53.226;10.400;2023-07-09T08:01:26;101621.78;;;23.96;47.35
51313;BME280;37397;53.226;10.400;2023-07-09T08:03:53;101615.63;;;24.00;47.17
51313;BME280;37397;53.226;10.400;2023-07-09T08:06:20;101613.97;;;24.05;46.95
51313;BME280;37397;53.226;10.400;2023-07-09T08:08:47;101611.50;;;24.09;47.19
51313;BME280;37397;53.226;10.400;2023-07-09T08:11:14;101615.41;;;24.11;47.04
51313;BME280;37397;53.226;10.400;2023-07-09T08:13:41;101615.06;;;24.15;47.21
51313;BME280;37397;53.226;10.400;2023-07-09T08:16:08;101618.47;;;24.19;47.25
51313;BME280;37397;53.226;10.400;2023-07-09T08:18:35;101612.84;;;24.21;47.12
51313;BME280;37397;53.226;10.400;2023-07-09T08:21:02;101623.38;;;24.24;46.81
51313;BME280;37397;53.226;10.400;2023-07-09T08:23:29;101621.16;;;24.30;46.90
51313;BME280;37397;53.226;10.400;2023-07-09T08:25:58;101614.19;;;24.33;46.95
51313;BME280;37397;53.226;10.400;2023-07-09T08:28:25;101612.31;;;24.36;47.03
51313;BME280;37397;53.226;10.400;2023-07-09T08:30:52;101612.94;;;24.42;46.74
51313;BME280;37397;53.226;10.400;2023-07-09T08:33:20;101613.97;;;24.45;47.00
51313;BME280;37397;53.226;10.400;2023-07-09T08:35:50;101618.13;;;24.49;46.98
51313;BME280;37397;53.226;10.400;2023-07-09T08:38:18;101616.44;;;24.54;47.11
51313;BME280;37397;53.226;10.400;2023-07-09T08:48:43;101613.97;;;24.71;46.67
51313;BME280;37397;53.226;10.400;2023-07-09T08:51:40;101606.97;;;24.74;46.84
51313;BME280;37397;53.226;10.400;2023-07-09T08:54:29;101602.16;;;24.77;46.92
51313;BME280;37397;53.226;10.400;2023-07-09T08:57:02;101607.31;;;24.84;46.50
51313;BME280;37397;53.226;10.400;2023-07-09T08:59:34;101603.50;;;24.89;46.83
51313;BME280;37397;53.226;10.400;2023-07-09T09:02:03;101601.00;;;24.93;46.91
51313;BME280;37397;53.226;10.400;2023-07-09T09:04:34;101605.91;;;24.99;46.26
51313;BME280;37397;53.226;10.400;2023-07-09T09:07:38;101605.34;;;25.00;46.57
51313;BME280;37397;53.226;10.400;2023-07-09T09:10:14;101602.31;;;25.06;46.40
51313;BME280;37397;53.226;10.400;2023-07-09T09:12:59;101600.41;;;25.08;46.24
51313;BME280;37397;53.226;10.400;2023-07-09T09:15:28;101596.56;;;25.14;46.48
51313;BME280;37397;53.226;10.400;2023-07-09T09:18:01;101598.56;;;25.19;46.50
51313;BME280;37397;53.226;10.400;2023-07-09T09:20:35;101599.78;;;25.23;46.44
51313;BME280;37397;53.226;10.400;2023-07-09T09:23:15;101600.22;;;25.27;46.45
51313;BME280;37397;53.226;10.400;2023-07-09T09:25:47;101591.13;;;25.31;46.11
51313;BME280;37397;53.226;10.400;2023-07-09T09:28:35;101589.75;;;25.32;46.27
51313;BME280;37397;53.226;10.400;2023-07-09T09:31:02;101587.47;;;25.38;46.09
51313;BME280;37397;53.226;10.400;2023-07-09T09:33:43;101587.94;;;25.42;45.94
51313;BME280;37397;53.226;10.400;2023-07-09T09:36:22;101589.13;;;25.47;45.96
51313;BME280;37397;53.226;10.400;2023-07-09T09:38:49;101588.53;;;25.48;45.95
51313;BME280;37397;53.226;10.400;2023-07-09T09:41:23;101586.25;;;25.55;45.72
51313;BME280;37397;53.226;10.400;2023-07-09T09:43:53;101585.34;;;25.60;45.63
51313;BME280;37397;53.226;10.400;2023-07-09T09:46:26;101577.56;;;25.62;45.75
51313;BME280;37397;53.226;10.400;2023-07-09T09:48:55;101586.97;;;25.69;45.46
51313;BME280;37397;53.226;10.400;2023-07-09T09:51:23;101584.25;;;25.71;45.77
51313;BME280;37397;53.226;10.400;2023-07-09T09:54:00;101581.78;;;25.75;45.14
51313;BME280;37397;53.226;10.400;2023-07-09T09:56:35;101578.47;;;25.78;45.18
51313;BME280;37397;53.226;10.400;2023-07-09T09:59:04;101580.47;;;25.83;45.21
51313;BME280;37397;53.226;10.400;2023-07-09T10:01:33;101582.69;;;25.91;45.08
51313;BME280;37397;53.226;10.400;2023-07-09T10:04:05;101574.09;;;25.93;44.97
51313;BME280;37397;53.226;10.400;2023-07-09T10:06:37;101575.88;;;25.96;44.99
51313;BME280;37397;53.226;10.400;2023-07-09T10:09:16;101571.84;;;25.99;44.99
51313;BME280;37397;53.226;10.400;2023-07-09T10:17:22;101579.16;;;26.13;44.85
51313;BME280;37397;53.226;10.400;2023-07-09T10:19:56;101578.00;;;26.16;44.46
51313;BME280;37397;53.226;10.400;2023-07-09T10:22:43;101585.03;;;26.21;44.48
51313;BME280;37397;53.226;10.400;2023-07-09T10:25:16;101586.25;;;26.26;44.43
51313;BME280;37397;53.226;10.400;2023-07-09T10:28:00;101576.31;;;26.29;44.41
51313;BME280;37397;53.226;10.400;2023-07-09T10:30:44;101581.22;;;26.34;44.35
51313;BME280;37397;53.226;10.400;2023-07-09T10:33:33;101577.94;;;26.37;44.03
51313;BME280;37397;53.226;10.400;2023-07-09T10:39:16;101574.25;;;26.45;44.05
51313;BME280;37397;53.226;10.400;2023-07-09T10:41:44;101564.50;;;26.50;44.39
51313;BME280;37397;53.226;10.400;2023-07-09T10:44:18;101565.72;;;26.54;44.01
51313;BME280;37397;53.226;10.400;2023-07-09T10:46:50;101570.41;;;26.57;44.02
51313;BME280;37397;53.226;10.400;2023-07-09T10:49:20;101568.09;;;26.64;44.06
51313;BME280;37397;53.226;10.400;2023-07-09T10:51:51;101569.31;;;26.68;44.23
51313;BME280;37397;53.226;10.400;2023-07-09T10:54:29;101569.13;;;26.74;43.66
51313;BME280;37397;53.226;10.400;2023-07-09T10:57:14;101560.75;;;26.78;43.84
51313;BME280;37397;53.226;10.400;2023-07-09T10:59:46;101560.56;;;26.84;43.78
51313;BME280;37397;53.226;10.400;2023-07-09T11:04:51;101554.75;;;26.91;43.45
51313;BME280;37397;53.226;10.400;2023-07-09T11:07:26;101559.63;;;26.97;43.44
51313;BME280;37397;53.226;10.400;2023-07-09T11:09:54;101554.97;;;27.01;43.06
51313;BME280;37397;53.226;10.400;2023-07-09T11:15:03;101557.91;;;27.09;42.92
51313;BME280;37397;53.226;10.400;2023-07-09T11:17:31;101545.03;;;27.12;42.95
51313;BME280;37397;53.226;10.400;2023-07-09T11:20:06;101546.97;;;27.17;42.51
51313;BME280;37397;53.226;10.400;2023-07-09T11:22:39;101551.09;;;27.22;42.21
51313;BME280;37397;53.226;10.400;2023-07-09T11:27:45;101551.53;;;27.34;41.58
51313;BME280;37397;53.226;10.400;2023-07-09T11:30:31;101543.72;;;27.36;41.04
51313;BME280;37397;53.226;10.400;2023-07-09T11:33:01;101537.69;;;27.42;41.49
51313;BME280;37397;53.226;10.400;2023-07-09T11:35:54;101532.00;;;27.44;40.98
51313;BME280;37397;53.226;10.400;2023-07-09T11:38:43;101529.25;;;27.46;40.64
51313;BME280;37397;53.226;10.400;2023-07-09T11:41:48;101525.16;;;27.49;40.77
51313;BME280;37397;53.226;10.400;2023-07-09T11:44:17;101527.28;;;27.56;41.17
51313;BME280;37397;53.226;10.400;2023-07-09T11:47:22;101525.94;;;27.57;40.30
51313;BME280;37397;53.226;10.400;2023-07-09T11:49:57;101521.81;;;27.68;41.27
51313;BME280;37397;53.226;10.400;2023-07-09T11:52:41;101519.84;;;27.78;39.71
51313;BME280;37397;53.226;10.400;2023-07-09T11:58:00;101518.06;;;27.91;39.79
51313;BME280;37397;53.226;10.400;2023-07-09T12:00:30;101520.63;;;27.94;40.27
51313;BME280;37397;53.226;10.400;2023-07-09T12:03:01;101519.44;;;27.97;39.93
51313;BME280;37397;53.226;10.400;2023-07-09T12:05:28;101513.19;;;28.01;39.74
51313;BME280;37397;53.226;10.400;2023-07-09T12:07:56;101505.34;;;28.04;39.74
51313;BME280;37397;53.226;10.400;2023-07-09T12:10:28;101512.38;;;28.08;39.48
51313;BME280;37397;53.226;10.400;2023-07-09T12:12:56;101508.28;;;28.11;39.65
51313;BME280;37397;53.226;10.400;2023-07-09T12:15:25;101502.00;;;28.15;39.30
51313;BME280;37397;53.226;10.400;2023-07-09T12:18:03;101501.22;;;28.14;38.78
51313;BME280;37397;53.226;10.400;2023-07-09T12:20:36;101499.03;;;28.23;39.66
51313;BME280;37397;53.226;10.400;2023-07-09T12:23:25;101492.38;;;28.22;39.06
51313;BME280;37397;53.226;10.400;2023-07-09T12:25:53;101487.06;;;28.28;39.46
51313;BME280;37397;53.226;10.400;2023-07-09T12:28:21;101488.03;;;28.31;39.55
51313;BME280;37397;53.226;10.400;2023-07-09T12:30:52;101487.63;;;28.34;39.23
51313;BME280;37397;53.226;10.400;2023-07-09T12:33:21;101493.09;;;28.38;39.51
51313;BME280;37397;53.226;10.400;2023-07-09T12:36:01;101478.63;;;28.40;39.39
51313;BME280;37397;53.226;10.400;2023-07-09T12:38:41;101488.38;;;28.43;39.10
51313;BME280;37397;53.226;10.400;2023-07-09T12:41:38;101490.72;;;28.44;39.00
51313;BME280;37397;53.226;10.400;2023-07-09T12:44:06;101486.00;;;28.49;39.57
51313;BME280;37397;53.226;10.400;2023-07-09T12:46:40;101485.00;;;28.54;39.72
51313;BME280;37397;53.226;10.400;2023-07-09T12:49:26;101479.13;;;28.54;39.20
51313;BME280;37397;53.226;10.400;2023-07-09T12:51:54;101479.09;;;28.62;39.25
51313;BME280;37397;53.226;10.400;2023-07-09T12:54:21;101482.59;;;28.68;39.15
51313;BME280;37397;53.226;10.400;2023-07-09T12:56:56;101476.31;;;28.71;38.58
51313;BME280;37397;53.226;10.400;2023-07-09T12:59:37;101480.81;;;28.72;38.86
51313;BME280;37397;53.226;10.400;2023-07-09T13:02:37;101476.88;;;28.78;38.36
51313;BME280;37397;53.226;10.400;2023-07-09T13:05:05;101483.88;;;28.82;39.20
51313;BME280;37397;53.226;10.400;2023-07-09T13:07:38;101474.47;;;28.84;38.64
51313;BME280;37397;53.226;10.400;2023-07-09T13:10:16;101480.69;;;28.88;38.69
51313;BME280;37397;53.226;10.400;2023-07-09T13:12:49;101472.25;;;28.92;38.63
51313;BME280;37397;53.226;10.400;2023-07-09T13:15:37;101476.16;;;28.95;38.38
51313;BME280;37397;53.226;10.400;2023-07-09T13:18:06;101478.25;;;29.02;38.90
51313;BME280;37397;53.226;10.400;2023-07-09T13:20:37;101477.84;;;29.05;38.65
51313;BME280;37397;53.226;10.400;2023-07-09T13:23:15;101476.63;;;29.08;38.47
51313;BME280;37397;53.226;10.400;2023-07-09T13:25:42;101477.78;;;29.13;38.90
51313;BME280;37397;53.226;10.400;2023-07-09T13:28:19;101473.03;;;29.18;38.25
51313;BME280;37397;53.226;10.400;2023-07-09T13:30:48;101476.97;;;29.20;38.76